createdAt,value
2019-03-03T00:00:05.798Z,5.50
2019-03-03T00:01:05.790Z,5.20
2019-03-03T00:02:05.799Z,5.60
2019-03-03T00:03:05.764Z,5.40
2019-03-03T00:04:05.755Z,5.00
2019-03-03T00:05:05.748Z,5.30
2019-03-03T00:06:05.730Z,4.90
2019-03-03T00:07:05.724Z,5.00
2019-03-03T00:08:05.725Z,5.30
2019-03-03T00:09:05.699Z,5.10
2019-03-03T00:10:05.693Z,4.80
2019-03-03T00:11:05.681Z,4.70
2019-03-03T00:12:05.668Z,4.90
2019-03-03T00:13:05.659Z,5.00
2019-03-03T00:14:05.660Z,4.80
2019-03-03T00:15:05.671Z,4.70
2019-03-03T00:16:05.631Z,4.60
2019-03-03T00:17:05.622Z,4.90
2019-03-03T00:18:06.340Z,4.80
2019-03-03T00:19:05.593Z,4.50
2019-03-03T00:20:05.611Z,4.70
2019-03-03T00:21:05.567Z,4.70
2019-03-03T00:22:05.555Z,4.40
2019-03-03T00:23:05.561Z,4.10
2019-03-03T00:24:05.564Z,4.70
2019-03-03T00:25:05.525Z,4.30
2019-03-03T00:26:05.531Z,4.60
2019-03-03T00:27:05.524Z,4.60
2019-03-03T00:28:05.492Z,4.40
2019-03-03T00:29:05.484Z,4.50
2019-03-03T00:30:05.468Z,4.60
2019-03-03T00:31:05.459Z,4.40
2019-03-03T00:32:05.473Z,4.70
2019-03-03T00:33:05.435Z,4.00
2019-03-03T00:34:05.422Z,4.80
2019-03-03T00:35:05.439Z,4.60
2019-03-03T00:36:05.411Z,4.10
2019-03-03T00:37:05.419Z,4.40
2019-03-03T00:38:05.397Z,4.20
2019-03-03T00:39:05.367Z,4.60
2019-03-03T00:40:05.356Z,4.20
2019-03-03T00:41:05.342Z,4.60
2019-03-03T00:42:05.330Z,4.20
2019-03-03T00:43:05.321Z,3.90
2019-03-03T00:44:05.327Z,4.40
2019-03-03T00:45:05.320Z,4.20
2019-03-03T00:46:05.292Z,3.80
2019-03-03T00:47:05.273Z,4.00
2019-03-03T00:48:05.288Z,4.10
2019-03-03T00:49:05.269Z,3.90
2019-03-03T00:50:05.272Z,4.40
2019-03-03T00:51:05.231Z,4.30
2019-03-03T00:52:05.225Z,4.00
2019-03-03T00:53:05.214Z,4.40
2019-03-03T00:54:05.204Z,4.20
2019-03-03T00:55:05.188Z,4.00
2019-03-03T00:56:05.199Z,4.30
2019-03-03T00:57:05.171Z,3.80
2019-03-03T00:58:05.154Z,4.20
2019-03-03T00:59:05.150Z,4.20
2019-03-03T01:00:05.134Z,4.00
2019-03-03T01:01:05.140Z,4.10
2019-03-03T01:02:05.155Z,4.40
2019-03-03T01:03:05.109Z,3.80
2019-03-03T01:04:05.122Z,4.10
2019-03-03T01:05:05.092Z,3.90
2019-03-03T01:06:05.067Z,4.10
2019-03-03T01:07:05.063Z,4.10
2019-03-03T01:08:05.066Z,4.00
2019-03-03T01:09:05.043Z,4.20
2019-03-03T01:10:05.051Z,4.10
2019-03-03T01:11:05.030Z,3.80
2019-03-03T01:12:05.012Z,3.90
2019-03-03T01:13:05.004Z,4.20
2019-03-03T01:14:05.024Z,3.80
2019-03-03T01:15:04.974Z,3.90
2019-03-03T01:16:04.968Z,4.00
2019-03-03T01:17:04.962Z,4.20
2019-03-03T01:18:04.943Z,4.00
2019-03-03T01:19:04.951Z,4.20
2019-03-03T01:20:04.944Z,4.60
2019-03-03T01:21:04.923Z,4.00
2019-03-03T01:22:04.900Z,4.10
2019-03-03T01:23:04.892Z,4.40
2019-03-03T01:24:04.877Z,4.00
2019-03-03T01:25:04.868Z,4.70
2019-03-03T01:26:04.875Z,4.60
2019-03-03T01:27:04.850Z,4.10
2019-03-03T01:28:04.834Z,4.40
2019-03-03T01:29:06.334Z,4.30
2019-03-03T01:30:04.817Z,4.30
2019-03-03T01:31:04.805Z,4.50
2019-03-03T01:32:04.825Z,4.00
2019-03-03T01:33:04.782Z,4.10
2019-03-03T01:34:04.771Z,4.40
2019-03-03T01:35:04.758Z,4.20
2019-03-03T01:36:04.752Z,4.60
2019-03-03T01:37:04.740Z,4.40
2019-03-03T01:38:04.763Z,4.40
2019-03-03T01:39:04.717Z,4.40
2019-03-03T01:40:04.727Z,4.40
2019-03-03T01:41:06.301Z,4.20
2019-03-03T01:42:04.697Z,4.70
2019-03-03T01:43:04.683Z,4.30
2019-03-03T01:44:04.682Z,4.10
2019-03-03T01:45:04.656Z,4.60
2019-03-03T01:46:04.647Z,4.50
2019-03-03T01:47:04.631Z,4.50
2019-03-03T01:48:04.640Z,4.60
2019-03-03T01:49:04.621Z,3.90
2019-03-03T01:50:04.614Z,4.50
2019-03-03T01:51:04.589Z,4.20
2019-03-03T01:52:04.578Z,4.50
2019-03-03T01:53:04.569Z,4.60
2019-03-03T01:54:04.569Z,4.20
2019-03-03T01:55:04.570Z,4.00
2019-03-03T01:56:04.553Z,4.40
2019-03-03T01:57:04.547Z,4.30
2019-03-03T01:58:04.525Z,4.70
2019-03-03T01:59:04.506Z,4.60
2019-03-03T02:00:04.496Z,4.40
2019-03-03T02:01:04.479Z,4.30
2019-03-03T02:02:04.489Z,4.10
2019-03-03T02:03:04.463Z,4.40
2019-03-03T02:04:04.479Z,4.00
2019-03-03T02:05:04.442Z,4.30
2019-03-03T02:06:04.428Z,4.30
2019-03-03T02:07:04.416Z,4.20
2019-03-03T02:08:04.425Z,4.50
2019-03-03T02:09:04.410Z,4.00
2019-03-03T02:10:04.391Z,4.40
2019-03-03T02:11:04.392Z,4.80
2019-03-03T02:12:04.367Z,4.30
2019-03-03T02:13:04.357Z,4.80
2019-03-03T02:14:04.364Z,4.40
2019-03-03T02:15:04.345Z,4.20
2019-03-03T02:16:04.323Z,4.30
2019-03-03T02:17:04.328Z,4.30
2019-03-03T02:18:04.299Z,4.20
2019-03-03T02:19:04.291Z,4.40
2019-03-03T02:20:04.304Z,4.20
2019-03-03T02:21:04.266Z,4.90
2019-03-03T02:22:04.255Z,4.30
2019-03-03T02:23:04.243Z,4.30
2019-03-03T02:24:04.249Z,4.60
2019-03-03T02:25:04.218Z,4.60
2019-03-03T02:26:04.229Z,4.70
2019-03-03T02:27:04.202Z,4.30
2019-03-03T02:28:04.204Z,4.30
2019-03-03T02:29:04.187Z,4.70
2019-03-03T02:30:04.167Z,4.90
2019-03-03T02:31:04.156Z,4.40
2019-03-03T02:32:04.171Z,4.40
2019-03-03T02:33:04.146Z,4.50
2019-03-03T02:34:04.145Z,4.40
2019-03-03T02:35:04.109Z,4.60
2019-03-03T02:36:04.101Z,4.20
2019-03-03T02:37:04.096Z,4.50
2019-03-03T02:38:04.102Z,4.40
2019-03-03T02:39:04.076Z,4.50
2019-03-03T02:40:04.057Z,4.80
2019-03-03T02:41:04.041Z,4.30
2019-03-03T02:42:04.031Z,4.80
2019-03-03T02:43:04.021Z,4.20
2019-03-03T02:44:04.026Z,4.50
2019-03-03T02:45:03.997Z,4.50
2019-03-03T02:46:03.991Z,4.50
2019-03-03T02:47:03.990Z,4.80
2019-03-03T02:48:03.970Z,4.60
2019-03-03T02:49:03.956Z,4.80
2019-03-03T02:50:03.964Z,4.50
2019-03-03T02:51:03.951Z,4.00
2019-03-03T02:52:03.930Z,4.20
2019-03-03T02:53:03.952Z,4.40
2019-03-03T02:54:03.900Z,4.60
2019-03-03T02:55:03.903Z,4.40
2019-03-03T02:56:03.896Z,4.20
2019-03-03T02:57:03.878Z,4.90
2019-03-03T02:58:03.860Z,4.50
2019-03-03T02:59:03.878Z,4.40
2019-03-03T03:00:03.837Z,4.60
2019-03-03T03:01:03.828Z,4.30
2019-03-03T03:02:03.838Z,4.80
2019-03-03T03:03:03.807Z,4.10
2019-03-03T03:04:03.795Z,4.40
2019-03-03T03:05:03.784Z,4.50
2019-03-03T03:06:03.777Z,4.60
2019-03-03T03:07:03.763Z,4.70
2019-03-03T03:08:03.770Z,4.50
2019-03-03T03:09:03.755Z,4.30
2019-03-03T03:10:03.731Z,4.30
2019-03-03T03:11:03.735Z,4.50
2019-03-03T03:12:03.719Z,4.20
2019-03-03T03:13:03.703Z,4.50
2019-03-03T03:14:03.708Z,4.30
2019-03-03T03:15:03.681Z,4.10
2019-03-03T03:16:03.672Z,4.40
2019-03-03T03:17:03.663Z,4.40
2019-03-03T03:18:03.645Z,4.30
2019-03-03T03:19:03.731Z,4.90
2019-03-03T03:20:03.645Z,4.40
2019-03-03T03:21:03.636Z,4.20
2019-03-03T03:22:03.608Z,4.50
2019-03-03T03:23:03.609Z,4.10
2019-03-03T03:24:03.578Z,4.30
2019-03-03T03:25:03.623Z,4.30
2019-03-03T03:26:03.576Z,3.90
2019-03-03T03:27:03.550Z,4.30
2019-03-03T03:28:03.538Z,4.10
2019-03-03T03:29:03.534Z,4.30
2019-03-03T03:30:03.523Z,4.10
2019-03-03T03:31:03.521Z,4.30
2019-03-03T03:32:03.517Z,4.50
2019-03-03T03:33:03.492Z,4.20
2019-03-03T03:34:03.491Z,4.40
2019-03-03T03:35:03.470Z,4.30
2019-03-03T03:36:03.462Z,4.30
2019-03-03T03:37:03.456Z,4.50
2019-03-03T03:38:03.476Z,4.20
2019-03-03T03:39:03.432Z,4.10
2019-03-03T03:40:03.413Z,4.10
2019-03-03T03:41:03.402Z,4.30
2019-03-03T03:42:03.388Z,4.10
2019-03-03T03:43:03.380Z,4.10
2019-03-03T03:44:03.391Z,4.00
2019-03-03T03:45:03.356Z,4.50
2019-03-03T03:46:03.345Z,4.60
2019-03-03T03:47:03.333Z,4.20
2019-03-03T03:48:03.322Z,4.10
2019-03-03T03:49:03.317Z,4.10
2019-03-03T03:50:03.318Z,4.40
2019-03-03T03:51:03.291Z,4.20
2019-03-03T03:52:03.285Z,4.40
2019-03-03T03:53:03.277Z,3.90
2019-03-03T03:54:03.286Z,4.10
2019-03-03T03:55:03.251Z,4.10
2019-03-03T03:56:03.267Z,4.30
2019-03-03T03:57:03.244Z,4.20
2019-03-03T03:58:03.216Z,4.30
2019-03-03T03:59:03.209Z,4.20
2019-03-03T04:00:03.196Z,4.10
2019-03-03T04:01:03.194Z,4.30
2019-03-03T04:02:03.211Z,4.70
2019-03-03T04:03:03.168Z,4.40
2019-03-03T04:04:03.150Z,4.30
2019-03-03T04:05:03.136Z,4.70
2019-03-03T04:06:03.136Z,4.00
2019-03-03T04:07:03.118Z,4.00
2019-03-03T04:08:03.159Z,4.40
2019-03-03T04:09:03.090Z,4.70
2019-03-03T04:10:03.085Z,5.10
2019-03-03T04:11:03.070Z,4.40
2019-03-03T04:12:03.066Z,4.30
2019-03-03T04:13:03.066Z,4.30
2019-03-03T04:14:03.059Z,4.70
2019-03-03T04:15:03.032Z,4.70
2019-03-03T04:16:03.013Z,4.30
2019-03-03T04:17:03.003Z,4.40
2019-03-03T04:18:03.007Z,4.20
2019-03-03T04:19:02.980Z,4.40
2019-03-03T04:20:03.013Z,4.30
2019-03-03T04:21:02.960Z,4.30
2019-03-03T04:22:02.949Z,4.30
2019-03-03T04:23:02.943Z,4.70
2019-03-03T04:24:02.934Z,4.80
2019-03-03T04:25:02.915Z,4.70
2019-03-03T04:26:02.918Z,4.30
2019-03-03T04:27:02.909Z,4.20
2019-03-03T04:28:02.880Z,4.60
2019-03-03T04:29:02.869Z,4.60
2019-03-03T04:30:02.859Z,4.50
2019-03-03T04:31:02.861Z,4.70
2019-03-03T04:32:02.856Z,4.50
2019-03-03T04:33:02.827Z,4.60
2019-03-03T04:34:02.812Z,4.20
2019-03-03T04:35:02.817Z,4.90
2019-03-03T04:36:02.792Z,4.50
2019-03-03T04:37:02.782Z,4.60
2019-03-03T04:38:02.784Z,4.90
2019-03-03T04:39:02.757Z,5.30
2019-03-03T04:40:02.743Z,5.00
2019-03-03T04:41:02.747Z,4.50
2019-03-03T04:42:02.749Z,4.70
2019-03-03T04:43:02.719Z,4.50
2019-03-03T04:44:02.726Z,4.60
2019-03-03T04:45:02.689Z,4.90
2019-03-03T04:46:02.679Z,4.80
2019-03-03T04:47:02.666Z,4.30
2019-03-03T04:48:02.656Z,4.60
2019-03-03T04:49:02.645Z,4.60
2019-03-03T04:50:02.644Z,4.20
2019-03-03T04:51:02.621Z,4.50
2019-03-03T04:52:02.615Z,5.00
2019-03-03T04:53:02.598Z,4.60
2019-03-03T04:54:02.586Z,4.90
2019-03-03T04:55:02.595Z,4.70
2019-03-03T04:56:02.591Z,4.20
2019-03-03T04:57:02.556Z,5.20
2019-03-03T04:58:02.549Z,4.20
2019-03-03T04:59:02.541Z,4.40
2019-03-03T05:00:02.518Z,4.50
2019-03-03T05:01:02.507Z,4.40
2019-03-03T05:02:02.530Z,5.00
2019-03-03T05:03:02.484Z,4.60
2019-03-03T05:04:02.471Z,5.30
2019-03-03T05:05:02.460Z,4.90
2019-03-03T05:06:02.450Z,4.70
2019-03-03T05:07:02.441Z,4.90
2019-03-03T05:08:02.482Z,4.70
2019-03-03T05:09:02.416Z,4.90
2019-03-03T05:10:02.438Z,4.80
2019-03-03T05:11:02.391Z,4.30
2019-03-03T05:12:02.383Z,4.60
2019-03-03T05:13:02.370Z,4.80
2019-03-03T05:14:02.377Z,4.70
2019-03-03T05:15:02.344Z,5.20
2019-03-03T05:16:02.338Z,4.80
2019-03-03T05:17:02.323Z,4.10
2019-03-03T05:18:02.314Z,4.30
2019-03-03T05:19:02.303Z,4.30
2019-03-03T05:20:02.310Z,4.70
2019-03-03T05:21:02.284Z,4.40
2019-03-03T05:22:02.269Z,4.40
2019-03-03T05:23:02.257Z,4.90
2019-03-03T05:24:02.245Z,4.80
2019-03-03T05:25:02.242Z,4.10
2019-03-03T05:26:02.243Z,4.50
2019-03-03T05:27:02.238Z,4.60
2019-03-03T05:28:02.197Z,4.60
2019-03-03T05:29:02.187Z,4.50
2019-03-03T05:30:02.175Z,4.70
2019-03-03T05:31:02.169Z,4.00
2019-03-03T05:32:02.171Z,4.50
2019-03-03T05:33:02.143Z,4.30
2019-03-03T05:34:02.133Z,4.40
2019-03-03T05:35:02.144Z,4.70
2019-03-03T05:36:02.108Z,4.20
2019-03-03T05:37:02.104Z,4.30
2019-03-03T05:38:02.136Z,4.30
2019-03-03T05:39:02.074Z,3.90
2019-03-03T05:40:02.068Z,4.40
2019-03-03T05:41:02.048Z,4.40
2019-03-03T05:42:02.047Z,4.70
2019-03-03T05:43:02.032Z,4.30
2019-03-03T05:44:02.039Z,4.20
2019-03-03T05:45:02.010Z,4.40
2019-03-03T05:46:01.994Z,4.20
2019-03-03T05:47:01.983Z,4.80
2019-03-03T05:48:01.970Z,4.20
2019-03-03T05:49:01.965Z,4.30
2019-03-03T05:50:01.974Z,4.40
2019-03-03T05:51:01.943Z,4.80
2019-03-03T05:52:01.923Z,4.60
2019-03-03T05:53:01.912Z,4.90
2019-03-03T05:54:01.908Z,5.00
2019-03-03T05:55:01.895Z,4.10
2019-03-03T05:56:01.911Z,4.60
2019-03-03T05:57:01.868Z,4.10
2019-03-03T05:58:01.860Z,4.10
2019-03-03T05:59:01.858Z,4.30
2019-03-03T06:00:01.847Z,4.20
2019-03-03T06:01:01.827Z,4.40
2019-03-03T06:02:01.838Z,4.60
2019-03-03T06:03:01.810Z,4.80
2019-03-03T06:04:01.790Z,4.40
2019-03-03T06:05:01.784Z,4.00
2019-03-03T06:06:01.771Z,4.90
2019-03-03T06:07:01.757Z,4.60
2019-03-03T06:08:01.762Z,4.50
2019-03-03T06:09:01.740Z,4.20
2019-03-03T06:10:01.739Z,4.20
2019-03-03T06:11:01.721Z,3.70
2019-03-03T06:12:01.706Z,4.20
2019-03-03T06:13:01.688Z,4.80
2019-03-03T06:14:01.693Z,4.40
2019-03-03T06:15:01.674Z,4.00
2019-03-03T06:16:01.659Z,4.80
2019-03-03T06:17:01.657Z,4.50
2019-03-03T06:18:01.636Z,4.20
2019-03-03T06:19:01.633Z,4.10
2019-03-03T06:20:01.666Z,4.20
2019-03-03T06:21:01.600Z,4.20
2019-03-03T06:22:01.586Z,4.40
2019-03-03T06:23:01.584Z,4.20
2019-03-03T06:24:01.566Z,4.70
2019-03-03T06:25:01.553Z,4.10
2019-03-03T06:26:01.566Z,3.90
2019-03-03T06:27:01.535Z,4.30
2019-03-03T06:28:01.520Z,4.30
2019-03-03T06:29:01.515Z,4.20
2019-03-03T06:30:01.506Z,4.30
2019-03-03T06:31:01.483Z,4.30
2019-03-03T06:32:01.491Z,4.10
2019-03-03T06:33:01.459Z,4.10
2019-03-03T06:34:01.451Z,4.10
2019-03-03T06:35:01.445Z,4.80
2019-03-03T06:36:01.434Z,3.60
2019-03-03T06:37:01.414Z,4.20
2019-03-03T06:38:01.423Z,4.00
2019-03-03T06:39:01.405Z,4.60
2019-03-03T06:40:01.383Z,4.20
2019-03-03T06:41:01.374Z,4.50
2019-03-03T06:42:01.365Z,3.90
2019-03-03T06:43:01.349Z,4.40
2019-03-03T06:44:01.354Z,4.30
2019-03-03T06:45:01.329Z,3.80
2019-03-03T06:46:01.316Z,4.30
2019-03-03T06:47:01.309Z,4.30
2019-03-03T06:48:01.293Z,4.40
2019-03-03T06:49:01.282Z,4.10
2019-03-03T06:50:01.287Z,4.30
2019-03-03T06:51:01.265Z,3.80
2019-03-03T06:52:01.253Z,3.70
2019-03-03T06:53:01.238Z,4.20
2019-03-03T06:54:01.237Z,4.10
2019-03-03T06:55:01.861Z,4.10
2019-03-03T06:56:01.224Z,4.30
2019-03-03T06:57:01.191Z,3.90
2019-03-03T06:58:01.185Z,4.20
2019-03-03T06:59:01.179Z,4.20
2019-03-03T07:00:03.868Z,4.30
2019-03-03T07:01:02.877Z,4.00
2019-03-03T07:02:01.156Z,4.20
2019-03-03T07:03:01.128Z,4.40
2019-03-03T07:04:01.109Z,4.40
2019-03-03T07:05:01.101Z,4.30
2019-03-03T07:06:01.091Z,3.70
2019-03-03T07:07:01.079Z,4.20
2019-03-03T07:08:01.080Z,3.80
2019-03-03T07:09:01.086Z,4.00
2019-03-03T07:10:07.860Z,4.10
2019-03-03T07:11:01.034Z,4.00
2019-03-03T07:12:01.858Z,4.80
2019-03-03T07:13:01.011Z,4.30
2019-03-03T07:14:01.017Z,4.50
2019-03-03T07:15:00.987Z,4.30
2019-03-03T07:16:00.979Z,4.50
2019-03-03T07:17:01.875Z,4.30
2019-03-03T07:18:00.958Z,4.00
2019-03-03T07:19:00.946Z,4.10
2019-03-03T07:20:00.947Z,4.70
2019-03-03T07:21:00.920Z,4.10
2019-03-03T07:22:00.918Z,4.80
2019-03-03T07:23:00.895Z,4.20
2019-03-03T07:24:00.889Z,4.40
2019-03-03T07:25:00.874Z,4.70
2019-03-03T07:26:00.880Z,3.60
2019-03-03T07:27:01.368Z,4.50
2019-03-03T07:28:01.358Z,4.20
2019-03-03T07:29:00.831Z,4.30
2019-03-03T07:30:01.359Z,4.10
2019-03-03T07:31:03.365Z,4.30
2019-03-03T07:32:00.812Z,4.50
2019-03-03T07:33:00.783Z,4.60
2019-03-03T07:34:00.772Z,4.60
2019-03-03T07:35:01.363Z,5.10
2019-03-03T07:36:00.768Z,5.00
2019-03-03T07:37:00.738Z,4.00
2019-03-03T07:38:00.742Z,4.40
2019-03-03T07:39:00.716Z,4.40
2019-03-03T07:40:00.709Z,4.20
2019-03-03T07:41:01.361Z,4.20
2019-03-03T07:42:01.365Z,4.30
2019-03-03T07:43:00.684Z,4.80
2019-03-03T07:44:00.681Z,4.40
2019-03-03T07:45:00.668Z,3.80
2019-03-03T07:46:02.367Z,4.70
2019-03-03T07:47:00.627Z,4.70
2019-03-03T07:48:00.621Z,4.50
2019-03-03T07:49:00.624Z,4.60
2019-03-03T07:50:00.613Z,4.50
2019-03-03T07:51:00.581Z,4.90
2019-03-03T07:52:00.581Z,4.70
2019-03-03T07:53:02.369Z,5.10
2019-03-03T07:54:00.585Z,4.80
2019-03-03T07:55:00.536Z,4.50
2019-03-03T07:56:00.551Z,5.00
2019-03-03T07:57:01.365Z,5.10
2019-03-03T07:58:00.536Z,4.70
2019-03-03T07:59:00.493Z,4.70
2019-03-03T08:00:00.489Z,4.90
2019-03-03T08:01:00.470Z,4.70
2019-03-03T08:02:00.474Z,5.10
2019-03-03T08:03:00.451Z,4.40
2019-03-03T08:04:00.439Z,4.60
2019-03-03T08:05:00.430Z,4.10
2019-03-03T08:06:00.413Z,4.90
2019-03-03T08:07:00.422Z,4.50
2019-03-03T08:08:00.407Z,4.90
2019-03-03T08:09:00.383Z,5.10
2019-03-03T08:10:00.368Z,5.20
2019-03-03T08:11:00.358Z,4.90
2019-03-03T08:12:00.357Z,5.10
2019-03-03T08:13:08.972Z,4.90
2019-03-03T08:14:01.340Z,4.60
2019-03-03T08:15:00.329Z,4.80
2019-03-03T08:16:00.866Z,4.90
2019-03-03T08:17:00.292Z,4.90
2019-03-03T08:18:00.284Z,4.80
2019-03-03T08:19:00.270Z,4.60
2019-03-03T08:20:00.319Z,5.40
2019-03-03T08:21:00.246Z,5.10
2019-03-03T08:22:00.237Z,4.60
2019-03-03T08:23:00.227Z,4.60
2019-03-03T08:24:00.211Z,5.00
2019-03-03T08:25:00.342Z,5.10
2019-03-03T08:26:00.211Z,4.50
2019-03-03T08:27:00.177Z,5.20
2019-03-03T08:28:00.168Z,5.00
2019-03-03T08:29:00.157Z,5.00
2019-03-03T08:30:02.870Z,4.50
2019-03-03T08:31:00.133Z,5.00
2019-03-03T08:32:00.143Z,4.70
2019-03-03T08:33:00.110Z,4.90
2019-03-03T08:34:00.866Z,5.10
2019-03-03T08:35:00.126Z,5.00
2019-03-03T08:36:00.089Z,4.70
2019-03-03T08:37:00.326Z,4.60
2019-03-03T08:38:00.075Z,4.60
2019-03-03T08:39:00.044Z,4.60
2019-03-03T08:40:00.030Z,4.90
2019-03-03T08:41:00.036Z,4.50
2019-03-03T08:42:00.006Z,4.70
2019-03-03T08:42:59.999Z,4.80
2019-03-03T08:44:00.004Z,4.90
2019-03-03T08:44:59.997Z,4.40
2019-03-03T08:45:59.977Z,4.30
2019-03-03T08:46:59.958Z,4.30
2019-03-03T08:47:59.941Z,4.70
2019-03-03T08:48:59.932Z,4.10
2019-03-03T08:49:59.949Z,4.50
2019-03-03T08:51:00.868Z,4.60
2019-03-03T08:51:59.895Z,5.20
2019-03-03T08:52:59.881Z,4.70
2019-03-03T08:53:59.891Z,4.70
2019-03-03T08:55:00.182Z,4.30
2019-03-03T08:55:59.870Z,4.80
2019-03-03T08:56:59.860Z,4.60
2019-03-03T08:57:59.828Z,4.70
2019-03-03T08:58:59.814Z,4.60
2019-03-03T08:59:59.803Z,4.40
2019-03-03T09:01:00.366Z,4.70
2019-03-03T09:01:59.803Z,4.50
2019-03-03T09:02:59.772Z,4.90
2019-03-03T09:03:59.758Z,4.70
2019-03-03T09:04:59.749Z,4.10
2019-03-03T09:05:59.743Z,4.80
2019-03-03T09:06:59.731Z,4.40
2019-03-03T09:07:59.727Z,4.10
2019-03-03T09:08:59.727Z,4.60
2019-03-03T09:09:59.689Z,4.10
2019-03-03T09:10:59.678Z,4.20
2019-03-03T09:12:01.375Z,4.50
2019-03-03T09:12:59.682Z,4.30
2019-03-03T09:13:59.671Z,4.10
2019-03-03T09:14:59.643Z,4.30
2019-03-03T09:15:59.621Z,3.60
2019-03-03T09:16:59.631Z,4.60
2019-03-03T09:17:59.603Z,4.10
2019-03-03T09:18:59.603Z,4.10
2019-03-03T09:19:59.593Z,3.70
2019-03-03T09:20:59.580Z,4.00
2019-03-03T09:22:00.383Z,3.70
2019-03-03T09:23:02.373Z,3.70
2019-03-03T09:23:59.529Z,3.90
2019-03-03T09:25:02.392Z,3.60
2019-03-03T09:25:59.523Z,3.80
2019-03-03T09:26:59.494Z,4.00
2019-03-03T09:27:59.486Z,3.90
2019-03-03T09:29:02.368Z,3.80
2019-03-03T09:29:59.461Z,3.50
2019-03-03T09:31:00.375Z,3.70
2019-03-03T09:31:59.459Z,3.60
2019-03-03T09:33:00.368Z,3.50
2019-03-03T09:33:59.410Z,3.60
2019-03-03T09:34:59.414Z,3.50
2019-03-03T09:35:59.391Z,3.40
2019-03-03T09:36:59.375Z,3.50
2019-03-03T09:37:59.383Z,3.40
2019-03-03T09:38:59.351Z,3.00
2019-03-03T09:40:08.817Z,3.70
2019-03-03T09:41:00.327Z,3.40
2019-03-03T09:41:59.322Z,3.40
2019-03-03T09:42:59.304Z,3.10
2019-03-03T09:43:59.312Z,3.40
2019-03-03T09:44:59.286Z,3.40
2019-03-03T09:45:59.270Z,3.80
2019-03-03T09:46:59.260Z,3.60
2019-03-03T09:47:59.252Z,3.80
2019-03-03T09:48:59.265Z,3.20
2019-03-03T09:49:59.240Z,3.10
2019-03-03T09:50:59.216Z,3.10
2019-03-03T09:51:59.205Z,3.30
2019-03-03T09:52:59.186Z,3.40
2019-03-03T09:53:59.183Z,3.10
2019-03-03T09:54:59.161Z,3.50
2019-03-03T09:55:59.166Z,3.50
2019-03-03T09:56:59.887Z,3.30
2019-03-03T09:57:59.871Z,3.20
2019-03-03T09:58:59.115Z,3.60
2019-03-03T09:59:59.102Z,3.20
2019-03-03T10:00:59.095Z,3.50
2019-03-03T10:01:59.099Z,3.70
2019-03-03T10:02:59.067Z,3.40
2019-03-03T10:03:59.873Z,3.50
2019-03-03T10:04:59.043Z,3.10
2019-03-03T10:05:59.905Z,3.30
2019-03-03T10:06:59.032Z,3.20
2019-03-03T10:07:59.028Z,3.30
2019-03-03T10:08:59.903Z,3.00
2019-03-03T10:09:59.873Z,3.50
2019-03-03T10:10:58.974Z,3.50
2019-03-03T10:11:58.964Z,3.10
2019-03-03T10:12:59.892Z,3.50
2019-03-03T10:13:58.977Z,3.30
2019-03-03T10:14:58.930Z,3.00
2019-03-03T10:15:58.921Z,3.40
2019-03-03T10:17:00.895Z,4.00
2019-03-03T10:17:58.902Z,3.20
2019-03-03T10:19:07.002Z,3.30
2019-03-03T10:19:58.896Z,3.60
2019-03-03T10:20:59.376Z,3.50
2019-03-03T10:21:58.850Z,3.30
2019-03-03T10:22:58.840Z,3.40
2019-03-03T10:24:00.389Z,3.10
2019-03-03T10:24:58.817Z,3.70
2019-03-03T10:25:58.821Z,3.40
2019-03-03T10:26:58.792Z,3.20
2019-03-03T10:27:58.804Z,3.00
2019-03-03T10:28:58.768Z,3.20
2019-03-03T10:29:58.771Z,3.20
2019-03-03T10:31:00.382Z,3.20
2019-03-03T10:31:58.754Z,3.20
2019-03-03T10:32:58.748Z,3.30
2019-03-03T10:33:58.711Z,3.20
2019-03-03T10:34:58.737Z,3.50
2019-03-03T10:35:58.686Z,3.80
2019-03-03T10:37:01.375Z,3.30
2019-03-03T10:37:58.685Z,3.40
2019-03-03T10:38:58.652Z,2.90
2019-03-03T10:39:58.643Z,3.00
2019-03-03T10:40:58.636Z,3.40
2019-03-03T10:41:59.379Z,3.40
2019-03-03T10:42:59.402Z,3.60
2019-03-03T10:43:58.612Z,3.10
2019-03-03T10:44:58.583Z,3.40
2019-03-03T10:45:58.569Z,3.20
2019-03-03T10:46:58.560Z,3.10
2019-03-03T10:47:58.546Z,3.20
2019-03-03T10:48:59.378Z,3.20
2019-03-03T10:49:58.541Z,3.60
2019-03-03T10:51:00.383Z,3.70
2019-03-03T10:51:58.501Z,3.80
2019-03-03T10:52:58.511Z,3.80
2019-03-03T10:53:58.479Z,3.60
2019-03-03T10:54:58.476Z,3.30
2019-03-03T10:55:58.475Z,3.00
2019-03-03T10:56:59.376Z,3.20
2019-03-03T10:57:58.430Z,3.30
2019-03-03T10:58:58.421Z,2.80
2019-03-03T10:59:59.375Z,3.30
2019-03-03T11:00:58.395Z,3.10
2019-03-03T11:01:58.413Z,3.10
2019-03-03T11:02:58.884Z,3.30
2019-03-03T11:03:58.362Z,2.90
2019-03-03T11:04:58.358Z,3.30
2019-03-03T11:05:58.342Z,3.30
2019-03-03T11:06:58.881Z,3.30
2019-03-03T11:07:58.334Z,2.80
2019-03-03T11:08:59.900Z,2.70
2019-03-03T11:09:58.292Z,3.10
2019-03-03T11:10:58.882Z,2.80
2019-03-03T11:11:59.903Z,3.00
2019-03-03T11:12:58.280Z,3.00
2019-03-03T11:13:58.304Z,3.00
2019-03-03T11:14:58.263Z,2.80
2019-03-03T11:15:58.224Z,2.70
2019-03-03T11:16:58.879Z,2.70
2019-03-03T11:17:58.881Z,2.60
2019-03-03T11:18:58.879Z,2.80
2019-03-03T11:19:58.198Z,2.80
2019-03-03T11:20:58.162Z,2.60
2019-03-03T11:21:58.159Z,2.80
2019-03-03T11:22:58.140Z,2.70
2019-03-03T11:23:58.124Z,2.60
2019-03-03T11:24:58.137Z,3.00
2019-03-03T11:25:58.124Z,2.80
2019-03-03T11:26:58.092Z,2.50
2019-03-03T11:27:58.078Z,2.90
2019-03-03T11:28:58.066Z,2.70
2019-03-03T11:30:02.908Z,3.10
2019-03-03T11:30:58.885Z,2.70
2019-03-03T11:31:58.045Z,2.50
2019-03-03T11:32:58.018Z,2.90
2019-03-03T11:33:58.007Z,2.40
2019-03-03T11:34:58.017Z,2.70
2019-03-03T11:35:57.981Z,2.90
2019-03-03T11:36:57.972Z,2.80
2019-03-03T11:37:57.988Z,2.80
2019-03-03T11:38:57.952Z,2.80
2019-03-03T11:39:57.940Z,2.80
2019-03-03T11:40:57.930Z,2.50
2019-03-03T11:41:58.881Z,2.80
2019-03-03T11:42:57.905Z,2.90
2019-03-03T11:43:57.908Z,2.60
2019-03-03T11:44:57.882Z,2.40
2019-03-03T11:45:58.389Z,2.40
2019-03-03T11:46:57.872Z,2.50
2019-03-03T11:48:04.144Z,2.50
2019-03-03T11:48:58.860Z,2.60
2019-03-03T11:49:57.820Z,2.60
2019-03-03T11:50:57.810Z,2.10
2019-03-03T11:51:58.384Z,2.40
2019-03-03T11:52:57.783Z,2.50
2019-03-03T11:53:57.775Z,2.50
2019-03-03T11:54:57.775Z,2.30
2019-03-03T11:55:57.748Z,2.30
2019-03-03T11:56:58.384Z,2.50
2019-03-03T11:57:58.389Z,2.80
2019-03-03T11:58:57.714Z,2.90
2019-03-03T11:59:59.400Z,2.60
2019-03-03T12:00:57.705Z,2.70
2019-03-03T12:01:57.673Z,3.00
2019-03-03T12:02:57.663Z,2.10
2019-03-03T12:03:58.386Z,2.40
2019-03-03T12:04:57.653Z,2.20
2019-03-03T12:05:57.632Z,2.50
2019-03-03T12:06:57.629Z,2.60
2019-03-03T12:07:57.601Z,2.70
2019-03-03T12:08:57.590Z,2.20
2019-03-03T12:09:58.385Z,2.10
2019-03-03T12:10:58.388Z,2.50
2019-03-03T12:11:57.552Z,2.10
2019-03-03T12:12:57.556Z,2.20
2019-03-03T12:13:57.528Z,2.30
2019-03-03T12:14:57.519Z,2.00
2019-03-03T12:15:57.512Z,2.20
2019-03-03T12:16:57.502Z,1.90
2019-03-03T12:17:58.392Z,2.20
2019-03-03T12:18:57.491Z,2.10
2019-03-03T12:19:57.457Z,2.20
2019-03-03T12:21:00.392Z,2.20
2019-03-03T12:21:57.447Z,2.10
2019-03-03T12:22:59.392Z,2.00
2019-03-03T12:23:58.395Z,2.40
2019-03-03T12:24:57.410Z,2.10
2019-03-03T12:25:57.401Z,2.30
2019-03-03T12:26:57.374Z,1.90
2019-03-03T12:27:57.886Z,2.20
2019-03-03T12:28:57.349Z,2.20
2019-03-03T12:29:57.896Z,2.10
2019-03-03T12:30:57.415Z,2.10
2019-03-03T12:31:57.889Z,2.30
2019-03-03T12:32:57.886Z,2.40
2019-03-03T12:33:57.286Z,2.20
2019-03-03T12:34:57.275Z,2.20
2019-03-03T12:35:57.262Z,2.50
2019-03-03T12:36:57.271Z,2.70
2019-03-03T12:37:57.240Z,2.40
2019-03-03T12:38:57.899Z,2.30
2019-03-03T12:39:57.930Z,2.50
2019-03-03T12:40:57.201Z,2.40
2019-03-03T12:41:57.888Z,2.30
2019-03-03T12:42:57.198Z,2.40
2019-03-03T12:43:57.166Z,2.30
2019-03-03T12:44:57.163Z,2.30
2019-03-03T12:45:57.141Z,2.20
2019-03-03T12:46:57.129Z,2.10
2019-03-03T12:47:57.893Z,2.70
2019-03-03T12:48:57.119Z,2.40
2019-03-03T12:49:57.096Z,2.50
2019-03-03T12:50:57.891Z,2.30
2019-03-03T12:51:57.074Z,2.30
2019-03-03T12:52:57.059Z,2.30
2019-03-03T12:53:57.081Z,2.80
2019-03-03T12:54:57.053Z,2.30
2019-03-03T12:55:58.482Z,2.50
2019-03-03T12:56:57.026Z,2.40
2019-03-03T12:57:57.021Z,2.30
2019-03-03T12:58:56.997Z,2.70
2019-03-03T12:59:56.993Z,2.40
2019-03-03T13:00:56.986Z,2.10
2019-03-03T13:01:56.952Z,2.50
2019-03-03T13:02:56.941Z,2.20
2019-03-03T13:04:03.898Z,2.10
2019-03-03T13:04:56.915Z,2.50
2019-03-03T13:05:58.911Z,2.40
2019-03-03T13:06:56.907Z,2.20
2019-03-03T13:07:56.881Z,2.40
2019-03-03T13:09:00.013Z,2.10
2019-03-03T13:10:01.405Z,2.30
2019-03-03T13:10:56.862Z,2.10
2019-03-03T13:11:56.830Z,2.20
2019-03-03T13:12:56.836Z,2.10
2019-03-03T13:13:58.402Z,2.00
2019-03-03T13:14:56.804Z,2.30
2019-03-03T13:15:56.788Z,2.30
2019-03-03T13:16:57.393Z,2.00
2019-03-03T13:17:56.781Z,2.00